Time;durP1;ratioP1;P1;durP2;ratioP2;P2;SDS_P1;SDS_P2;PMS_P1;PMS_P2;Temp;Humidity;BMP_temperature;BMP_pressure;BME280_temperature;BME280_humidity;BME280_pressure;Samples;Min_cycle;Max_cycle;Signal;HPM_P1;HPM_P2
2023/01/13 02:46:28;;;;;;;5.50;3.50;;;;;;;6.28;100.00;98498.91;108053;1306;22264;-40
2023/01/13 02:48:58;;;;;;;8.20;3.90;;;;;;;6.27;100.00;98493.57;108050;1306;22250;-39
2023/01/13 02:51:26;;;;;;;6.90;3.90;;;;;;;6.26;100.00;98491.35;108057;1306;22248;-39
2023/01/13 02:54:14;;;;;;;8.40;3.80;;;;;;;6.31;100.00;98486.92;108039;1306;22425;-42
2023/01/13 02:56:46;;;;;;;6.50;3.80;;;;;;;6.28;100.00;98486.55;108010;1304;143343;-42
2023/01/13 02:59:12;;;;;;;7.50;4.30;;;;;;;6.29;100.00;98484.38;108345;1304;22224;-42
2023/01/13 03:01:37;;;;;;;5.70;3.20;;;;;;;6.33;100.00;98484.36;108326;1304;23107;-40
2023/01/13 03:04:49;;;;;;;5.40;3.50;;;;;;;6.36;100.00;98480.94;108293;1304;22426;-41
2023/01/13 03:07:41;;;;;;;4.60;3.20;;;;;;;6.36;100.00;98482.13;108334;1304;22913;-41
2023/01/13 03:10:10;;;;;;;9.90;3.60;;;;;;;6.35;100.00;98476.27;108325;1304;22314;-40
2023/01/13 03:13:03;;;;;;;5.10;3.90;;;;;;;6.33;100.00;98470.99;108317;1304;22279;-40
2023/01/13 03:16:06;;;;;;;4.70;3.50;;;;;;;6.37;100.00;98471.81;108311;1304;22467;-40
2023/01/13 03:18:36;;;;;;;7.70;4.00;;;;;;;6.38;100.00;98470.53;108320;1304;22164;-40
2023/01/13 03:21:18;;;;;;;7.40;4.10;;;;;;;6.39;100.00;98468.58;108339;1304;22282;-43
2023/01/13 03:24:00;;;;;;;8.00;4.00;;;;;;;6.39;100.00;98464.06;108321;1304;22357;-42
2023/01/13 03:26:34;;;;;;;6.40;3.50;;;;;;;6.41;100.00;98466.02;108341;1304;22404;-42
2023/01/13 03:29:12;;;;;;;5.50;3.50;;;;;;;6.42;100.00;98464.25;108307;1304;22347;-42
2023/01/13 03:31:53;;;;;;;6.40;3.30;;;;;;;6.42;100.00;98467.05;108324;1304;22481;-40
2023/01/13 03:34:23;;;;;;;4.80;3.40;;;;;;;6.41;100.00;98469.00;108326;1304;22531;-39
2023/01/13 03:36:52;;;;;;;9.50;3.70;;;;;;;6.41;100.00;98468.16;108342;1304;22232;-40
2023/01/13 03:39:25;;;;;;;7.20;3.50;;;;;;;6.41;100.00;98467.45;108328;1304;22271;-41
2023/01/13 03:41:56;;;;;;;6.50;3.60;;;;;;;6.42;100.00;98468.61;108328;1304;22244;-41
2023/01/13 03:44:41;;;;;;;4.60;3.50;;;;;;;6.40;100.00;98465.56;108333;1304;22951;-42
2023/01/13 16:10:15;;;;;;;13.30;7.00;;;;;;;8.52;92.44;98477.61;107009;1303;545234;-40
2023/01/13 16:12:41;;;;;;;14.00;6.90;;;;;;;8.45;93.49;98478.14;107388;1308;22495;-39
2023/01/13 16:15:07;;;;;;;12.50;6.70;;;;;;;8.43;93.78;98474.27;106853;1313;23143;-39
2023/01/13 16:17:34;;;;;;;14.20;5.40;;;;;;;8.40;94.13;98476.88;107325;1295;22281;-37
2023/01/13 16:20:00;;;;;;;13.30;6.40;;;;;;;8.40;94.14;98474.91;107378;1312;23247;-39
2023/01/13 16:22:25;;;;;;;10.20;6.10;;;;;;;8.32;94.55;98471.23;107340;1305;22490;-41
2023/01/13 16:24:50;;;;;;;9.70;6.50;;;;;;;8.34;94.52;98469.02;107667;1305;122841;-40
2023/01/13 16:27:22;;;;;;;9.30;5.70;;;;;;;8.33;94.42;98470.45;107753;1305;22341;-39
2023/01/13 16:29:48;;;;;;;13.30;7.00;;;;;;;8.27;94.87;98472.56;107743;1309;22462;-41
2023/01/13 16:32:13;;;;;;;18.90;9.20;;;;;;;8.26;94.66;98477.30;107772;1309;22523;-37
2023/01/13 16:34:39;;;;;;;27.50;12.90;;;;;;;8.25;94.61;98480.33;107747;1301;22487;-38
2023/01/13 16:37:34;;;;;;;14.90;6.50;;;;;;;8.26;94.40;98488.30;107792;1302;22477;-39
2023/01/13 16:40:00;;;;;;;18.20;8.00;;;;;;;8.31;94.38;98492.23;107753;1305;24763;-38
2023/01/13 16:42:25;;;;;;;10.70;5.60;;;;;;;8.31;94.15;98495.88;107814;1301;22558;-40
2023/01/13 16:44:51;;;;;;;12.20;5.80;;;;;;;8.31;93.96;98501.32;107770;1302;22366;-39
2023/01/13 16:47:17;;;;;;;9.50;5.50;;;;;;;8.35;93.84;98501.98;107759;1309;23098;-41
2023/01/13 16:49:43;;;;;;;8.90;5.20;;;;;;;8.39;93.95;98509.25;107764;1309;22367;-48
2023/01/13 16:52:08;;;;;;;9.90;6.00;;;;;;;8.39;93.90;98512.88;107761;1309;22351;-40
2023/01/13 16:54:34;;;;;;;12.50;6.40;;;;;;;8.41;93.96;98518.90;107778;1309;22489;-40
2023/01/13 16:56:59;;;;;;;11.00;6.20;;;;;;;8.41;93.80;98516.08;107544;1302;22607;-37
2023/01/13 16:59:24;;;;;;;12.50;6.30;;;;;;;8.40;93.92;98514.05;107174;1309;22430;-40
2023/01/13 17:01:50;;;;;;;14.00;6.30;;;;;;;8.39;94.20;98512.90;107450;1308;22430;-39
2023/01/13 17:04:18;;;;;;;11.00;6.10;;;;;;;8.33;94.50;98510.77;107776;1292;22399;-38
2023/01/13 17:06:51;;;;;;;10.90;6.30;;;;;;;8.31;94.64;98514.55;107861;1301;22223;-39
2023/01/13 17:09:19;;;;;;;11.80;6.90;;;;;;;8.34;94.48;98512.80;107755;1292;22227;-38
2023/01/13 17:11:44;;;;;;;11.30;6.40;;;;;;;8.35;94.21;98514.35;107759;1309;22255;-38
2023/01/13 17:14:10;;;;;;;11.00;6.20;;;;;;;8.35;94.42;98518.88;107776;1309;22396;-39
2023/01/13 17:16:36;;;;;;;9.30;5.90;;;;;;;8.35;94.33;98521.36;107747;1305;23225;-38
2023/01/13 17:19:01;;;;;;;12.30;6.00;;;;;;;8.32;94.42;98520.98;107779;1301;22448;-37
2023/01/13 17:21:27;;;;;;;11.90;5.70;;;;;;;8.26;94.91;98522.73;107714;1301;22479;-39
2023/01/13 17:23:52;;;;;;;10.30;5.00;;;;;;;8.27;94.81;98520.70;107717;1308;23185;-39
2023/01/13 17:26:26;;;;;;;13.30;5.70;;;;;;;8.26;94.82;98518.89;107749;1301;22246;-38
2023/01/13 17:28:52;;;;;;;9.00;5.40;;;;;;;8.23;95.17;98518.00;107742;1309;22487;-38
2023/01/13 17:31:17;;;;;;;9.40;5.30;;;;;;;8.23;95.10;98509.45;107751;1301;22738;-38
2023/01/13 17:33:43;;;;;;;9.90;5.50;;;;;;;8.20;94.84;98513.64;107753;1309;22570;-38
2023/01/13 17:36:08;;;;;;;12.00;5.60;;;;;;;8.13;95.28;98513.85;107735;1309;22453;-38
2023/01/13 17:38:33;;;;;;;14.90;5.80;;;;;;;8.16;95.23;98515.45;107751;1302;22887;-38
2023/01/13 17:41:03;;;;;;;14.60;6.30;;;;;;;8.11;95.36;98508.42;107764;1309;22330;-39
2023/01/13 17:43:29;;;;;;;13.20;6.00;;;;;;;8.08;95.53;98511.91;107749;1309;22309;-39
2023/01/13 17:45:56;;;;;;;10.50;6.20;;;;;;;8.08;95.58;98515.88;107755;1301;22514;-40
2023/01/13 17:48:21;;;;;;;14.50;6.00;;;;;;;8.14;95.04;98521.88;107179;1309;22580;-39
2023/01/13 17:50:47;;;;;;;10.90;5.70;;;;;;;8.06;95.57;98517.23;107685;1302;22567;-38
2023/01/13 17:53:12;;;;;;;13.00;6.20;;;;;;;8.05;95.53;98518.86;107748;1309;22473;-38
2023/01/13 17:55:38;;;;;;;8.90;5.80;;;;;;;8.03;95.94;98523.48;107752;1309;22347;-38
2023/01/13 17:58:03;;;;;;;14.50;6.10;;;;;;;7.99;96.33;98522.89;107748;1309;23199;-38
2023/01/13 18:00:28;;;;;;;12.30;6.00;;;;;;;8.00;95.84;98522.80;107743;1309;23097;-38
2023/01/13 18:02:54;;;;;;;10.80;5.50;;;;;;;7.98;96.12;98523.45;107632;1309;22486;-39
2023/01/13 18:05:19;;;;;;;11.80;6.10;;;;;;;8.00;96.28;98530.14;107765;1309;22432;-38
2023/01/13 18:07:45;;;;;;;11.90;6.20;;;;;;;8.01;96.09;98535.67;107738;1306;23269;-42
2023/01/13 18:10:10;;;;;;;10.50;6.00;;;;;;;8.01;96.20;98530.98;107746;1309;23031;-38
2023/01/13 18:12:35;;;;;;;11.40;5.60;;;;;;;7.99;96.27;98534.72;107729;1301;22475;-38
2023/01/13 18:15:01;;;;;;;15.50;6.00;;;;;;;7.99;96.06;98537.88;107729;1302;22236;-41
2023/01/13 18:17:26;;;;;;;11.90;4.70;;;;;;;8.01;95.93;98543.19;107677;1309;22343;-40
2023/01/13 18:28:04;;;;;;;8.30;4.80;;;;;;;8.01;95.38;98549.33;107741;1308;23406;-37
2023/01/13 18:30:29;;;;;;;10.30;5.00;;;;;;;8.02;95.13;98547.68;107698;1301;22278;-39
2023/01/13 18:32:55;;;;;;;8.90;4.90;;;;;;;8.01;95.05;98548.94;107545;1309;22597;-38
2023/01/13 18:35:21;;;;;;;9.70;5.70;;;;;;;7.99;95.06;98547.32;106889;1309;22579;-40
2023/01/13 18:37:46;;;;;;;10.40;5.60;;;;;;;7.98;95.07;98550.19;107412;1309;22461;-40
2023/01/13 18:40:12;;;;;;;11.20;5.90;;;;;;;7.94;95.20;98557.54;107786;1309;22263;-39
2023/01/13 18:42:50;;;;;;;9.70;5.20;;;;;;;7.94;95.21;98553.73;107690;1308;22343;-38
2023/01/13 18:45:20;;;;;;;9.30;5.50;;;;;;;7.94;95.16;98559.10;107761;1309;22368;-38
2023/01/13 18:47:45;;;;;;;6.60;4.50;;;;;;;7.91;95.44;98561.92;107745;1309;22247;-39
2023/01/13 18:50:12;;;;;;;9.70;4.30;;;;;;;7.83;96.14;98569.66;107516;1309;22249;-39
2023/01/13 18:52:39;;;;;;;7.80;4.60;;;;;;;7.87;96.37;98568.58;107776;1308;22992;-38
2023/01/13 18:55:04;;;;;;;11.30;5.10;;;;;;;7.81;96.78;98568.71;107757;1309;23535;-40
2023/01/13 18:57:30;;;;;;;8.60;4.60;;;;;;;7.79;97.13;98572.54;107745;1309;22985;-40
2023/01/13 18:59:56;;;;;;;8.20;4.70;;;;;;;7.74;97.17;98570.15;107751;1309;22409;-38
2023/01/13 19:02:22;;;;;;;8.90;4.00;;;;;;;7.77;96.62;98570.52;107731;1309;22245;-40
2023/01/13 19:04:47;;;;;;;9.30;4.20;;;;;;;7.78;96.28;98567.70;107784;1308;22388;-38
2023/01/13 19:07:21;;;;;;;7.20;4.20;;;;;;;7.80;96.08;98570.70;107813;1308;22404;-41
2023/01/13 19:09:48;;;;;;;8.10;4.30;;;;;;;7.79;96.39;98571.67;107813;1308;22398;-38
2023/01/13 19:12:14;;;;;;;;;;;;;;;7.77;96.55;98574.91;107829;1308;23078;-38
2023/01/13 19:14:41;;;;;;;7.90;3.70;;;;;;;7.76;96.37;98572.88;107822;1308;23253;-37
2023/01/13 19:17:12;;;;;;;7.90;4.10;;;;;;;7.75;96.35;98579.88;107804;1308;22410;-41
2023/01/13 19:19:39;;;;;;;8.00;4.20;;;;;;;7.77;95.97;98581.67;107801;1308;22312;-39
2023/01/13 19:22:06;;;;;;;8.90;4.40;;;;;;;7.78;95.77;98585.66;107799;1308;22224;-38
2023/01/13 19:24:31;;;;;;;8.00;3.80;;;;;;;7.75;95.78;98590.85;107797;1302;22927;-38
2023/01/13 19:26:56;;;;;;;9.00;3.70;;;;;;;7.73;95.68;98598.33;107804;1308;22253;-39
2023/01/13 19:29:22;;;;;;;10.40;3.90;;;;;;;7.72;95.94;98603.95;107784;1308;22953;-38
2023/01/13 19:31:47;;;;;;;6.40;3.70;;;;;;;7.66;95.90;98598.35;107608;1308;22282;-38
2023/01/13 19:34:13;;;;;;;7.60;4.30;;;;;;;7.62;96.33;98597.02;107792;1308;23258;-38
2023/01/13 19:36:38;;;;;;;8.60;4.30;;;;;;;7.63;96.15;98594.52;107804;1308;22249;-40
2023/01/13 19:39:03;;;;;;;7.70;3.90;;;;;;;7.62;96.13;98596.13;107784;1308;24252;-40
2023/01/13 19:46:57;;;;;;;7.70;4.70;;;;;;;7.60;96.39;98608.97;107831;1308;23139;-38
2023/01/13 19:49:22;;;;;;;12.40;5.10;;;;;;;7.58;96.23;98610.46;107820;1308;22422;-38
2023/01/13 19:51:48;;;;;;;7.20;4.90;;;;;;;7.55;96.56;98613.80;107812;1308;22287;-39
2023/01/13 19:54:13;;;;;;;10.10;5.70;;;;;;;7.52;96.60;98617.77;107812;1308;23042;-38
2023/01/13 19:56:39;;;;;;;10.10;5.30;;;;;;;7.53;96.75;98624.52;107797;1308;22271;-40
2023/01/13 19:59:04;;;;;;;8.40;5.10;;;;;;;7.52;96.58;98632.27;107822;1308;23356;-38
2023/01/13 20:01:34;;;;;;;11.30;6.20;;;;;;;7.48;96.90;98630.50;107811;1308;23026;-40
2023/01/13 20:04:02;;;;;;;11.70;6.00;;;;;;;7.50;96.88;98636.72;107804;1308;23039;-39
2023/01/13 20:06:29;;;;;;;10.70;6.20;;;;;;;7.50;97.08;98643.48;107839;1308;22951;-40
2023/01/13 20:08:55;;;;;;;12.90;6.30;;;;;;;7.50;96.93;98641.59;107799;1308;22221;-38
2023/01/13 20:11:20;;;;;;;13.40;6.60;;;;;;;7.46;97.08;98644.06;107830;1308;22247;-39
2023/01/13 20:13:50;;;;;;;11.90;6.40;;;;;;;7.46;97.24;98645.47;107831;1308;23187;-41
2023/01/13 20:16:16;;;;;;;9.30;6.10;;;;;;;7.44;97.45;98647.50;107807;1308;22479;-38
2023/01/13 20:18:42;;;;;;;12.30;6.70;;;;;;;7.44;97.64;98649.77;107824;1308;22266;-39
2023/01/13 20:21:07;;;;;;;11.80;7.00;;;;;;;7.46;97.39;98656.98;107821;1308;22245;-38
2023/01/13 20:23:33;;;;;;;14.60;7.20;;;;;;;7.42;97.74;98655.30;107797;1308;22173;-38
2023/01/13 20:25:59;;;;;;;10.90;6.80;;;;;;;7.41;97.42;98660.02;107816;1308;22306;-40
2023/01/13 20:28:25;;;;;;;14.10;6.40;;;;;;;7.37;97.45;98666.00;107801;1308;22268;-38
2023/01/13 20:30:50;;;;;;;12.00;6.40;;;;;;;7.38;97.37;98666.83;107801;1308;22434;-40
2023/01/13 20:33:16;;;;;;;11.40;6.40;;;;;;;7.39;97.04;98669.57;107831;1308;22230;-41
2023/01/13 20:35:43;;;;;;;11.70;7.10;;;;;;;7.35;97.12;98668.39;107803;1308;22509;-38
2023/01/13 20:38:09;;;;;;;13.50;7.00;;;;;;;7.33;97.31;98673.54;107803;1308;22240;-39
2023/01/13 20:40:34;;;;;;;14.40;7.20;;;;;;;7.30;97.24;98679.61;107820;1308;22332;-40
2023/01/13 20:43:00;;;;;;;12.10;7.00;;;;;;;7.29;97.29;98685.77;107781;1308;22233;-38
2023/01/13 20:45:25;;;;;;;12.90;6.30;;;;;;;7.26;97.36;98689.71;107794;1308;22239;-43
2023/01/13 20:47:52;;;;;;;12.30;7.30;;;;;;;7.24;97.49;98683.58;107813;1308;22272;-41
2023/01/13 20:50:17;;;;;;;14.60;7.30;;;;;;;7.23;97.31;98681.88;107778;1308;22219;-39
2023/01/13 20:52:43;;;;;;;11.90;6.90;;;;;;;7.26;97.11;98678.77;107804;1308;22273;-38
2023/01/13 20:55:09;;;;;;;14.30;7.30;;;;;;;7.25;96.84;98676.73;107808;1308;22770;-39
2023/01/13 20:57:34;;;;;;;14.70;6.90;;;;;;;7.20;96.78;98677.35;107815;1308;22290;-39
2023/01/13 21:00:01;;;;;;;14.40;7.40;;;;;;;7.19;96.41;98681.23;107796;1308;22372;-40
2023/01/13 21:02:26;;;;;;;15.40;7.10;;;;;;;7.18;96.36;98679.68;107804;1308;22267;-40
2023/01/13 21:04:52;;;;;;;14.20;7.20;;;;;;;7.16;96.53;98683.96;107841;1308;23011;-39
2023/01/13 21:07:17;;;;;;;10.90;6.60;;;;;;;7.15;96.50;98688.22;107837;1308;22201;-41
2023/01/13 21:09:43;;;;;;;14.20;7.40;;;;;;;7.15;96.31;98690.98;107788;1308;22241;-37
2023/01/13 21:20:24;;;;;;;14.70;7.40;;;;;;;7.11;96.48;98689.14;107788;1308;22355;-39
2023/01/13 21:22:50;;;;;;;14.20;6.90;;;;;;;7.09;96.17;98693.06;107801;1308;22268;-39
2023/01/13 21:25:17;;;;;;;17.70;8.20;;;;;;;7.07;96.20;98691.25;107833;1308;22395;-38
2023/01/13 21:27:45;;;;;;;14.10;7.40;;;;;;;7.05;96.07;98697.25;107807;1308;22415;-40
2023/01/13 21:30:14;;;;;;;13.70;7.30;;;;;;;7.01;95.75;98704.79;107812;1308;22329;-39
2023/01/13 21:32:40;;;;;;;12.50;6.70;;;;;;;7.01;95.77;98711.92;107804;1308;22296;-39
2023/01/13 21:35:06;;;;;;;14.70;7.70;;;;;;;6.99;95.80;98715.35;107818;1308;22384;-38
2023/01/13 21:37:35;;;;;;;11.90;6.90;;;;;;;6.99;95.71;98719.53;107822;1308;22890;-38
2023/01/13 21:40:01;;;;;;;11.40;6.70;;;;;;;6.97;95.61;98722.77;107820;1308;22242;-39
2023/01/13 21:47:55;;;;;;;14.30;7.50;;;;;;;6.92;95.49;98725.45;107798;1308;22396;-40
2023/01/13 21:50:23;;;;;;;14.70;7.80;;;;;;;6.92;95.43;98721.80;107807;1308;22219;-37
2023/01/13 21:52:51;;;;;;;14.60;7.10;;;;;;;6.88;95.46;98725.66;107798;1308;22296;-37
2023/01/13 21:55:18;;;;;;;14.80;7.10;;;;;;;6.83;95.54;98726.96;107805;1308;23025;-37
2023/01/13 21:57:44;;;;;;;12.00;7.20;;;;;;;6.81;95.52;98722.66;107825;1308;22922;-40
2023/01/13 22:00:10;;;;;;;18.30;7.50;;;;;;;6.82;95.39;98726.30;107830;1308;22336;-40
2023/01/13 22:02:36;;;;;;;15.90;8.00;;;;;;;6.81;95.19;98723.20;107813;1308;22454;-38
2023/01/13 22:05:04;;;;;;;14.40;7.40;;;;;;;6.78;94.96;98720.05;107799;1308;22261;-41
2023/01/13 22:07:33;;;;;;;16.40;8.20;;;;;;;6.76;95.03;98723.27;107828;1308;23101;-39
2023/01/13 22:09:58;;;;;;;16.40;8.10;;;;;;;6.76;95.02;98725.70;107826;1308;23277;-40
2023/01/13 22:12:24;;;;;;;14.30;7.80;;;;;;;6.74;94.93;98725.42;107826;1308;22232;-39
2023/01/13 22:14:50;;;;;;;16.50;8.40;;;;;;;6.76;94.90;98728.86;107801;1308;22248;-41
2023/01/13 22:17:20;;;;;;;11.30;7.80;;;;;;;6.76;94.67;98728.83;107793;1308;22504;-39
2023/01/13 22:19:47;;;;;;;13.90;7.60;;;;;;;6.78;94.62;98727.19;107785;1308;22249;-38
2023/01/13 22:22:14;;;;;;;14.00;8.50;;;;;;;6.79;94.55;98726.81;107847;1308;22250;-40
2023/01/13 22:24:42;;;;;;;16.80;8.40;;;;;;;6.75;94.55;98728.54;107772;1308;22384;-40
2023/01/13 22:27:11;;;;;;;;;;;;;;;6.68;94.70;98727.31;107855;1308;22432;-38
2023/01/13 22:29:36;;;;;;;16.10;8.70;;;;;;;6.66;94.65;98726.20;107793;1308;22965;-39
2023/01/13 22:32:02;;;;;;;16.50;8.70;;;;;;;6.64;94.52;98722.11;107803;1308;22314;-40
2023/01/13 22:34:27;;;;;;;13.00;7.90;;;;;;;6.61;94.49;98725.23;107776;1308;23103;-40
2023/01/13 22:36:52;;;;;;;18.00;9.20;;;;;;;6.62;94.35;98723.43;107798;1308;23244;-41
2023/01/13 22:39:18;;;;;;;17.70;8.90;;;;;;;6.61;94.32;98728.67;107822;1308;22493;-40
2023/01/13 22:41:44;;;;;;;16.40;8.10;;;;;;;6.61;94.23;98730.98;107810;1308;23117;-39
2023/01/13 22:44:09;;;;;;;14.20;8.00;;;;;;;6.61;93.97;98740.02;107830;1308;23180;-39
2023/01/13 22:46:35;;;;;;;14.30;7.70;;;;;;;6.58;94.00;98749.58;107811;1308;23298;-38
2023/01/13 22:49:00;;;;;;;16.40;8.10;;;;;;;6.58;93.95;98751.45;107815;1308;22280;-39
2023/01/13 22:51:26;;;;;;;14.60;8.10;;;;;;;6.58;93.83;98752.38;107777;1308;22252;-40
2023/01/13 22:53:52;;;;;;;15.80;8.90;;;;;;;6.58;93.58;98750.97;107795;1308;22307;-39
2023/01/13 22:56:20;;;;;;;18.00;8.20;;;;;;;6.56;93.34;98750.88;107820;1308;22403;-39
2023/01/13 22:58:47;;;;;;;16.00;8.30;;;;;;;6.56;93.28;98754.88;107827;1308;22537;-39
2023/01/13 23:01:15;;;;;;;15.50;8.40;;;;;;;6.54;93.15;98757.24;107828;1308;22286;-40
2023/01/13 23:03:41;;;;;;;14.10;8.00;;;;;;;6.53;93.09;98763.55;107821;1308;23066;-40
2023/01/13 23:06:06;;;;;;;15.10;7.30;;;;;;;6.56;93.14;98766.36;107800;1308;23000;-36
2023/01/13 23:08:33;;;;;;;20.60;8.40;;;;;;;6.52;92.94;98767.44;107789;1308;22934;-38
2023/01/13 23:11:06;;;;;;;14.10;7.90;;;;;;;6.48;92.96;98765.52;107818;1308;22301;-38
2023/01/13 23:13:32;;;;;;;16.60;9.10;;;;;;;6.48;93.05;98768.31;107817;1308;23196;-40
2023/01/13 23:16:06;;;;;;;17.70;8.70;;;;;;;6.48;93.12;98768.14;107805;1308;22155;-40
2023/01/13 23:18:32;;;;;;;18.20;8.40;;;;;;;6.47;93.32;98768.17;107807;1308;22308;-39
2023/01/13 23:21:07;;;;;;;18.10;8.70;;;;;;;6.45;93.32;98763.25;107812;1308;22513;-39
2023/01/13 23:23:33;;;;;;;17.50;8.90;;;;;;;6.45;93.52;98762.53;107813;1308;22248;-38
2023/01/13 23:25:59;;;;;;;16.70;8.30;;;;;;;6.45;93.59;98768.63;107805;1308;22241;-38
2023/01/13 23:28:24;;;;;;;15.90;8.20;;;;;;;6.44;93.74;98766.27;107786;1308;22417;-40
2023/01/13 23:30:50;;;;;;;15.70;8.80;;;;;;;6.44;93.65;98769.40;107820;1308;22409;-40
2023/01/13 23:33:16;;;;;;;20.70;10.50;;;;;;;6.44;93.64;98771.64;107838;1308;22213;-39
2023/01/13 23:35:42;;;;;;;15.60;9.80;;;;;;;6.46;93.57;98774.70;107819;1308;22683;-39
2023/01/13 23:38:07;;;;;;;17.60;8.80;;;;;;;6.44;93.25;98774.63;107805;1308;22254;-39
2023/01/13 23:40:33;;;;;;;15.00;8.10;;;;;;;6.40;92.90;98775.84;107810;1308;22477;-39
2023/01/13 23:42:59;;;;;;;15.90;7.70;;;;;;;6.36;92.86;98780.19;107833;1308;22235;-37
2023/01/13 23:45:24;;;;;;;16.60;8.30;;;;;;;6.37;92.84;98785.36;107814;1308;22466;-40
2023/01/13 23:47:49;;;;;;;14.90;7.90;;;;;;;6.37;92.79;98786.76;107819;1308;23044;-39
2023/01/13 23:50:15;;;;;;;14.70;8.20;;;;;;;6.35;92.80;98789.11;107805;1308;22414;-37
2023/01/13 23:52:41;;;;;;;16.80;8.70;;;;;;;6.34;92.98;98783.75;107817;1308;23013;-38
2023/01/13 23:55:06;;;;;;;16.00;8.40;;;;;;;6.32;92.92;98788.71;107792;1308;22399;-39
2023/01/13 23:57:32;;;;;;;16.20;7.90;;;;;;;6.31;92.99;98788.59;107799;1308;22249;-40
2023/01/13 23:59:57;;;;;;;19.20;7.90;;;;;;;6.28;92.90;98791.00;107811;1308;22248;-40
